sensor_id;sensor_type;location;lat;lon;timestamp;pressure;altitude;pressure_sealevel;temperature;humidity
6208;BME280;3137;51.550;7.060;2023-04-30T00:01:20;78064.81;;;-145.94;61.40
6208;BME280;3137;51.550;7.060;2023-04-30T00:03:46;78066.84;;;-145.94;61.22
6208;BME280;3137;51.550;7.060;2023-04-30T00:06:13;78066.84;;;-145.94;61.53
6208;BME280;3137;51.550;7.060;2023-04-30T00:08:39;78083.19;;;-145.94;61.57
6208;BME280;3137;51.550;7.060;2023-04-30T00:11:06;78097.47;;;-145.94;61.43
6208;BME280;3137;51.550;7.060;2023-04-30T00:13:32;78111.72;;;-145.94;61.32
6208;BME280;3137;51.550;7.060;2023-04-30T00:15:59;78126.00;;;-145.94;61.46
6208;BME280;3137;51.550;7.060;2023-04-30T00:18:26;78144.38;;;-145.94;61.31
6208;BME280;3137;51.550;7.060;2023-04-30T00:20:52;78156.59;;;-145.94;61.42
6208;BME280;3137;51.550;7.060;2023-04-30T00:23:19;78170.88;;;-145.94;61.95
6208;BME280;3137;51.550;7.060;2023-04-30T00:25:45;78181.09;;;-145.94;61.95
6208;BME280;3137;51.550;7.060;2023-04-30T00:28:11;78185.16;;;-145.94;62.42
6208;BME280;3137;51.550;7.060;2023-04-30T00:30:38;78189.25;;;-145.94;62.37
6208;BME280;3137;51.550;7.060;2023-04-30T00:33:04;78199.44;;;-145.94;62.39
6208;BME280;3137;51.550;7.060;2023-04-30T00:35:30;78203.53;;;-145.94;62.49
6208;BME280;3137;51.550;7.060;2023-04-30T00:37:57;78199.44;;;-145.94;62.83
6208;BME280;3137;51.550;7.060;2023-04-30T00:40:23;78207.59;;;-145.94;62.63
6208;BME280;3137;51.550;7.060;2023-04-30T00:42:50;78207.59;;;-145.94;62.72
6208;BME280;3137;51.550;7.060;2023-04-30T00:45:18;78217.81;;;-145.94;62.96
6208;BME280;3137;51.550;7.060;2023-04-30T00:47:47;78219.84;;;-145.94;62.98
6208;BME280;3137;51.550;7.060;2023-04-30T00:50:14;78217.81;;;-145.94;63.05
6208;BME280;3137;51.550;7.060;2023-04-30T00:52:42;78234.13;;;-145.94;63.22
6208;BME280;3137;51.550;7.060;2023-04-30T00:55:12;78236.16;;;-145.94;63.24
6208;BME280;3137;51.550;7.060;2023-04-30T00:57:39;78246.38;;;-145.94;63.04
6208;BME280;3137;51.550;7.060;2023-04-30T01:00:06;78252.47;;;-145.94;63.51
6208;BME280;3137;51.550;7.060;2023-04-30T01:02:36;78254.53;;;-145.94;63.61
6208;BME280;3137;51.550;7.060;2023-04-30T01:05:03;78266.75;;;-145.94;63.59
6208;BME280;3137;51.550;7.060;2023-04-30T01:07:32;78266.75;;;-145.94;63.66
6208;BME280;3137;51.550;7.060;2023-04-30T01:09:59;78268.81;;;-145.94;63.82
6208;BME280;3137;51.550;7.060;2023-04-30T01:12:41;78268.81;;;-145.94;63.75
6208;BME280;3137;51.550;7.060;2023-04-30T01:15:27;78270.84;;;-145.94;64.12
6208;BME280;3137;51.550;7.060;2023-04-30T01:18:06;78266.75;;;-145.94;64.17
6208;BME280;3137;51.550;7.060;2023-04-30T01:20:38;78270.84;;;-145.94;64.26
6208;BME280;3137;51.550;7.060;2023-04-30T01:23:17;78276.97;;;-145.94;64.35
6208;BME280;3137;51.550;7.060;2023-04-30T01:26:00;78285.13;;;-145.94;64.47
6208;BME280;3137;51.550;7.060;2023-04-30T01:28:35;78287.16;;;-145.94;64.45
6208;BME280;3137;51.550;7.060;2023-04-30T01:31:02;78291.25;;;-145.94;64.70
6208;BME280;3137;51.550;7.060;2023-04-30T01:33:28;78297.38;;;-145.94;64.54
6208;BME280;3137;51.550;7.060;2023-04-30T01:36:12;78311.63;;;-145.94;64.56
6208;BME280;3137;51.550;7.060;2023-04-30T01:44:04;78317.75;;;-145.94;65.15
6208;BME280;3137;51.550;7.060;2023-04-30T01:46:31;78309.59;;;-145.94;65.36
6208;BME280;3137;51.550;7.060;2023-04-30T01:51:41;78299.41;;;-145.94;65.82
6208;BME280;3137;51.550;7.060;2023-04-30T01:54:18;78317.75;;;-145.94;65.86
6208;BME280;3137;51.550;7.060;2023-04-30T01:56:54;78309.59;;;-145.94;65.92
6208;BME280;3137;51.550;7.060;2023-04-30T01:59:23;78319.81;;;-145.94;65.87
6208;BME280;3137;51.550;7.060;2023-04-30T02:01:49;78325.91;;;-145.94;65.85
6208;BME280;3137;51.550;7.060;2023-04-30T02:04:16;78336.13;;;-145.94;66.03
6208;BME280;3137;51.550;7.060;2023-04-30T02:06:42;78348.38;;;-145.94;65.94
6208;BME280;3137;51.550;7.060;2023-04-30T02:09:09;78350.41;;;-145.94;66.00
6208;BME280;3137;51.550;7.060;2023-04-30T02:11:37;78354.47;;;-145.94;66.00
6208;BME280;3137;51.550;7.060;2023-04-30T02:14:03;78354.47;;;-145.94;66.00
6208;BME280;3137;51.550;7.060;2023-04-30T02:16:30;78360.59;;;-145.94;66.01
6208;BME280;3137;51.550;7.060;2023-04-30T02:18:58;78354.47;;;-145.94;66.20
6208;BME280;3137;51.550;7.060;2023-04-30T02:21:24;78356.53;;;-145.94;66.33
6208;BME280;3137;51.550;7.060;2023-04-30T02:23:50;78348.38;;;-145.94;66.36
6208;BME280;3137;51.550;7.060;2023-04-30T02:26:17;78348.38;;;-145.94;66.27
6208;BME280;3137;51.550;7.060;2023-04-30T02:28:43;78344.28;;;-145.94;66.55
6208;BME280;3137;51.550;7.060;2023-04-30T02:31:10;78346.31;;;-145.94;66.75
6208;BME280;3137;51.550;7.060;2023-04-30T02:33:36;78338.16;;;-145.94;66.87
6208;BME280;3137;51.550;7.060;2023-04-30T02:36:03;78332.03;;;-145.94;66.94
6208;BME280;3137;51.550;7.060;2023-04-30T02:38:29;78334.09;;;-145.94;67.27
6208;BME280;3137;51.550;7.060;2023-04-30T02:40:56;78332.03;;;-145.94;67.23
6208;BME280;3137;51.550;7.060;2023-04-30T02:43:22;78319.81;;;-145.94;67.31
6208;BME280;3137;51.550;7.060;2023-04-30T02:45:48;78319.81;;;-145.94;67.79
6208;BME280;3137;51.550;7.060;2023-04-30T02:48:15;78313.69;;;-145.94;67.45
6208;BME280;3137;51.550;7.060;2023-04-30T02:50:41;78313.69;;;-145.94;67.54
6208;BME280;3137;51.550;7.060;2023-04-30T02:53:08;78321.84;;;-145.94;67.49
6208;BME280;3137;51.550;7.060;2023-04-30T02:55:34;78327.97;;;-145.94;67.52
6208;BME280;3137;51.550;7.060;2023-04-30T02:58:00;78332.03;;;-145.94;67.78
6208;BME280;3137;51.550;7.060;2023-04-30T03:00:27;78334.09;;;-145.94;67.69
6208;BME280;3137;51.550;7.060;2023-04-30T03:02:53;78323.88;;;-145.94;67.51
6208;BME280;3137;51.550;7.060;2023-04-30T03:05:20;78327.97;;;-145.94;67.75
6208;BME280;3137;51.550;7.060;2023-04-30T03:07:46;78334.09;;;-145.94;67.63
6208;BME280;3137;51.550;7.060;2023-04-30T03:10:12;78336.13;;;-145.94;67.65
6208;BME280;3137;51.550;7.060;2023-04-30T03:12:39;78352.44;;;-145.94;67.81
6208;BME280;3137;51.550;7.060;2023-04-30T03:15:06;78348.38;;;-145.94;67.79
6208;BME280;3137;51.550;7.060;2023-04-30T03:17:34;78352.44;;;-145.94;67.86
6208;BME280;3137;51.550;7.060;2023-04-30T03:20:01;78358.56;;;-145.94;67.84
6208;BME280;3137;51.550;7.060;2023-04-30T03:22:27;78356.53;;;-145.94;68.08
6208;BME280;3137;51.550;7.060;2023-04-30T03:24:53;78354.47;;;-145.94;68.07
6208;BME280;3137;51.550;7.060;2023-04-30T03:27:20;78354.47;;;-145.94;67.92
6208;BME280;3137;51.550;7.060;2023-04-30T03:29:47;78366.72;;;-145.94;68.01
6208;BME280;3137;51.550;7.060;2023-04-30T03:32:13;78368.75;;;-145.94;68.36
6208;BME280;3137;51.550;7.060;2023-04-30T03:34:40;78370.81;;;-145.94;68.19
6208;BME280;3137;51.550;7.060;2023-04-30T03:37:06;78364.69;;;-145.94;68.02
6208;BME280;3137;51.550;7.060;2023-04-30T03:39:33;78372.84;;;-145.94;68.12
6208;BME280;3137;51.550;7.060;2023-04-30T03:41:59;78362.63;;;-145.94;68.00
6208;BME280;3137;51.550;7.060;2023-04-30T03:44:28;78364.69;;;-145.94;68.00
6208;BME280;3137;51.550;7.060;2023-04-30T03:46:54;78362.63;;;-145.94;67.98
6208;BME280;3137;51.550;7.060;2023-04-30T03:49:21;78356.53;;;-145.94;68.00
6208;BME280;3137;51.550;7.060;2023-04-30T03:51:47;78360.59;;;-145.94;67.97
6208;BME280;3137;51.550;7.060;2023-04-30T03:54:13;78362.63;;;-145.94;68.04
6208;BME280;3137;51.550;7.060;2023-04-30T03:56:40;78370.81;;;-145.94;68.06
6208;BME280;3137;51.550;7.060;2023-04-30T03:59:06;78372.84;;;-145.94;67.91
6208;BME280;3137;51.550;7.060;2023-04-30T04:01:33;78389.16;;;-145.94;67.96
6208;BME280;3137;51.550;7.060;2023-04-30T04:04:00;78393.25;;;-145.94;67.97
6208;BME280;3137;51.550;7.060;2023-04-30T04:06:27;78389.16;;;-145.94;68.23
6208;BME280;3137;51.550;7.060;2023-04-30T04:08:53;78391.19;;;-145.94;68.14
6208;BME280;3137;51.550;7.060;2023-04-30T04:11:21;78393.25;;;-145.94;68.13
6208;BME280;3137;51.550;7.060;2023-04-30T04:13:47;78401.41;;;-145.94;68.32
6208;BME280;3137;51.550;7.060;2023-04-30T04:16:14;78399.34;;;-145.94;68.39
6208;BME280;3137;51.550;7.060;2023-04-30T04:18:41;78401.41;;;-145.94;68.43
6208;BME280;3137;51.550;7.060;2023-04-30T04:21:07;78399.34;;;-145.94;68.45
6208;BME280;3137;51.550;7.060;2023-04-30T04:23:34;78401.41;;;-145.94;68.47
6208;BME280;3137;51.550;7.060;2023-04-30T04:26:00;78399.34;;;-145.94;68.17
6208;BME280;3137;51.550;7.060;2023-04-30T04:28:27;78409.56;;;-145.94;68.20
6208;BME280;3137;51.550;7.060;2023-04-30T04:30:54;78405.47;;;-145.94;68.36
6208;BME280;3137;51.550;7.060;2023-04-30T04:33:20;78405.47;;;-145.94;68.38
6208;BME280;3137;51.550;7.060;2023-04-30T04:35:46;78409.56;;;-145.94;68.21
6208;BME280;3137;51.550;7.060;2023-04-30T04:38:13;78405.47;;;-145.94;68.39
6208;BME280;3137;51.550;7.060;2023-04-30T04:40:39;78411.59;;;-145.94;68.58
6208;BME280;3137;51.550;7.060;2023-04-30T04:43:06;78407.53;;;-145.94;68.88
6208;BME280;3137;51.550;7.060;2023-04-30T04:45:32;78397.31;;;-145.94;68.82
6208;BME280;3137;51.550;7.060;2023-04-30T04:47:59;78393.25;;;-145.94;68.89
6208;BME280;3137;51.550;7.060;2023-04-30T04:50:26;78378.97;;;-145.94;69.01
6208;BME280;3137;51.550;7.060;2023-04-30T04:52:52;78376.91;;;-145.94;68.99
6208;BME280;3137;51.550;7.060;2023-04-30T04:55:18;78366.72;;;-145.94;69.06
6208;BME280;3137;51.550;7.060;2023-04-30T04:57:45;78364.69;;;-145.94;69.08
6208;BME280;3137;51.550;7.060;2023-04-30T05:00:12;78354.47;;;-145.94;69.13
6208;BME280;3137;51.550;7.060;2023-04-30T05:02:39;78346.31;;;-145.94;69.08
6208;BME280;3137;51.550;7.060;2023-04-30T05:05:05;78338.16;;;-145.94;68.82
6208;BME280;3137;51.550;7.060;2023-04-30T05:07:33;78340.19;;;-145.94;69.10
6208;BME280;3137;51.550;7.060;2023-04-30T05:10:01;78321.84;;;-145.94;68.59
6208;BME280;3137;51.550;7.060;2023-04-30T05:12:27;78313.69;;;-145.94;68.69
6208;BME280;3137;51.550;7.060;2023-04-30T05:14:53;78301.44;;;-145.94;68.43
6208;BME280;3137;51.550;7.060;2023-04-30T05:17:20;78301.44;;;-145.94;68.44
6208;BME280;3137;51.550;7.060;2023-04-30T05:19:46;78293.28;;;-145.94;68.04
6208;BME280;3137;51.550;7.060;2023-04-30T05:22:16;78281.03;;;-145.94;68.12
6208;BME280;3137;51.550;7.060;2023-04-30T05:24:42;78266.75;;;-145.94;67.83
6208;BME280;3137;51.550;7.060;2023-04-30T05:27:08;78264.72;;;-145.94;67.64
6208;BME280;3137;51.550;7.060;2023-04-30T05:29:35;78256.56;;;-145.94;67.64
6208;BME280;3137;51.550;7.060;2023-04-30T05:32:01;78250.44;;;-145.94;67.42
6208;BME280;3137;51.550;7.060;2023-04-30T05:34:28;78240.25;;;-145.94;67.36
6208;BME280;3137;51.550;7.060;2023-04-30T05:36:54;78234.13;;;-145.94;67.46
6208;BME280;3137;51.550;7.060;2023-04-30T05:39:21;78219.84;;;-145.94;67.31
6208;BME280;3137;51.550;7.060;2023-04-30T05:41:47;78205.56;;;-145.94;67.11
6208;BME280;3137;51.550;7.060;2023-04-30T05:44:14;78191.28;;;-145.94;66.95
6208;BME280;3137;51.550;7.060;2023-04-30T05:46:40;78179.06;;;-145.94;66.89
6208;BME280;3137;51.550;7.060;2023-04-30T05:49:07;78166.81;;;-145.94;66.63
6208;BME280;3137;51.550;7.060;2023-04-30T05:51:33;78156.59;;;-145.94;66.01
6208;BME280;3137;51.550;7.060;2023-04-30T05:54:00;78144.38;;;-145.94;65.70
6208;BME280;3137;51.550;7.060;2023-04-30T05:56:26;78144.38;;;-145.94;65.85
6208;BME280;3137;51.550;7.060;2023-04-30T05:58:53;78130.09;;;-145.94;65.51
6208;BME280;3137;51.550;7.060;2023-04-30T06:01:19;78121.94;;;-145.94;65.13
6208;BME280;3137;51.550;7.060;2023-04-30T06:03:46;78109.69;;;-145.94;65.06
6208;BME280;3137;51.550;7.060;2023-04-30T06:06:12;78095.41;;;-145.94;65.24
6208;BME280;3137;51.550;7.060;2023-04-30T06:08:39;78079.09;;;-145.94;64.67
6208;BME280;3137;51.550;7.060;2023-04-30T06:11:12;78087.25;;;-145.94;63.89
6208;BME280;3137;51.550;7.060;2023-04-30T06:13:39;78066.84;;;-145.94;63.66
6208;BME280;3137;51.550;7.060;2023-04-30T06:16:06;78070.94;;;-145.94;63.79
6208;BME280;3137;51.550;7.060;2023-04-30T06:18:34;78060.75;;;-145.94;63.74
6208;BME280;3137;51.550;7.060;2023-04-30T06:21:00;78050.53;;;-145.94;63.78
6208;BME280;3137;51.550;7.060;2023-04-30T06:23:27;78054.63;;;-145.94;63.24
6208;BME280;3137;51.550;7.060;2023-04-30T06:25:53;78044.41;;;-145.94;62.75
6208;BME280;3137;51.550;7.060;2023-04-30T06:28:19;78021.97;;;-145.94;62.73
6208;BME280;3137;51.550;7.060;2023-04-30T06:30:46;78001.59;;;-145.94;63.17
6208;BME280;3137;51.550;7.060;2023-04-30T06:33:12;78001.59;;;-145.94;61.88
6208;BME280;3137;51.550;7.060;2023-04-30T06:35:39;77989.34;;;-145.94;61.99
6208;BME280;3137;51.550;7.060;2023-04-30T06:38:05;77981.19;;;-145.94;61.46
6208;BME280;3137;51.550;7.060;2023-04-30T06:40:32;77989.34;;;-145.94;60.94
6208;BME280;3137;51.550;7.060;2023-04-30T06:42:58;77956.72;;;-145.94;61.14
6208;BME280;3137;51.550;7.060;2023-04-30T06:45:25;77944.47;;;-145.94;61.58
6208;BME280;3137;51.550;7.060;2023-04-30T06:47:51;77952.63;;;-145.94;60.42
6208;BME280;3137;51.550;7.060;2023-04-30T06:50:19;77934.28;;;-145.94;60.46
6208;BME280;3137;51.550;7.060;2023-04-30T06:52:46;77913.88;;;-145.94;60.37
6208;BME280;3137;51.550;7.060;2023-04-30T06:55:13;77891.44;;;-145.94;59.94
6208;BME280;3137;51.550;7.060;2023-04-30T06:57:39;77893.47;;;-145.94;59.26
6208;BME280;3137;51.550;7.060;2023-04-30T07:00:06;77881.25;;;-145.94;59.15
6208;BME280;3137;51.550;7.060;2023-04-30T07:02:34;77871.03;;;-145.94;59.11
6208;BME280;3137;51.550;7.060;2023-04-30T07:05:01;77854.72;;;-145.94;58.80
6208;BME280;3137;51.550;7.060;2023-04-30T07:07:27;77856.75;;;-145.94;58.80
6208;BME280;3137;51.550;7.060;2023-04-30T07:09:54;77820.06;;;-145.94;59.06
6208;BME280;3137;51.550;7.060;2023-04-30T07:12:20;77797.63;;;-145.94;58.58
6208;BME280;3137;51.550;7.060;2023-04-30T07:14:47;77775.19;;;-145.94;58.18
6208;BME280;3137;51.550;7.060;2023-04-30T07:17:14;77756.81;;;-145.94;57.76
6208;BME280;3137;51.550;7.060;2023-04-30T07:19:40;77750.69;;;-145.94;57.76
6208;BME280;3137;51.550;7.060;2023-04-30T07:22:06;77744.59;;;-145.94;56.53
6208;BME280;3137;51.550;7.060;2023-04-30T07:24:33;77730.31;;;-145.94;56.60
6208;BME280;3137;51.550;7.060;2023-04-30T07:26:59;77732.34;;;-145.94;56.19
6208;BME280;3137;51.550;7.060;2023-04-30T07:29:29;77724.19;;;-145.94;56.19
6208;BME280;3137;51.550;7.060;2023-04-30T07:31:55;77701.75;;;-145.94;56.34
6208;BME280;3137;51.550;7.060;2023-04-30T07:34:22;77679.31;;;-145.94;56.05
6208;BME280;3137;51.550;7.060;2023-04-30T07:36:48;77642.59;;;-145.94;56.81
6208;BME280;3137;51.550;7.060;2023-04-30T07:39:15;77612.00;;;-145.94;55.77
6208;BME280;3137;51.550;7.060;2023-04-30T07:41:42;77597.72;;;-145.94;54.36
6208;BME280;3137;51.550;7.060;2023-04-30T07:44:09;77595.69;;;-145.94;53.79
6208;BME280;3137;51.550;7.060;2023-04-30T07:46:37;77599.78;;;-145.94;53.29
6208;BME280;3137;51.550;7.060;2023-04-30T07:49:03;77605.88;;;-145.94;53.93
6208;BME280;3137;51.550;7.060;2023-04-30T07:51:30;77595.69;;;-145.94;54.43
6208;BME280;3137;51.550;7.060;2023-04-30T07:53:59;77579.38;;;-145.94;53.66
6208;BME280;3137;51.550;7.060;2023-04-30T07:56:26;77579.38;;;-145.94;52.40
6208;BME280;3137;51.550;7.060;2023-04-30T07:58:52;77577.34;;;-145.94;52.92
6208;BME280;3137;51.550;7.060;2023-04-30T08:01:19;77575.28;;;-145.94;53.16
6208;BME280;3137;51.550;7.060;2023-04-30T08:03:45;77552.84;;;-145.94;53.27
6208;BME280;3137;51.550;7.060;2023-04-30T08:06:12;77544.69;;;-145.94;52.97
6208;BME280;3137;51.550;7.060;2023-04-30T08:08:38;77524.31;;;-145.94;52.80
6208;BME280;3137;51.550;7.060;2023-04-30T08:11:05;77524.31;;;-145.94;52.28
6208;BME280;3137;51.550;7.060;2023-04-30T08:13:31;77501.88;;;-145.94;51.79
6208;BME280;3137;51.550;7.060;2023-04-30T08:15:57;77503.91;;;-145.94;51.48
6208;BME280;3137;51.550;7.060;2023-04-30T08:18:24;77510.03;;;-145.94;51.08
6208;BME280;3137;51.550;7.060;2023-04-30T08:20:50;77487.59;;;-145.94;52.33
6208;BME280;3137;51.550;7.060;2023-04-30T08:23:16;77489.63;;;-145.94;51.08
6208;BME280;3137;51.550;7.060;2023-04-30T08:25:43;77465.16;;;-145.94;51.19
6208;BME280;3137;51.550;7.060;2023-04-30T08:28:09;77448.84;;;-145.94;50.50
6208;BME280;3137;51.550;7.060;2023-04-30T08:30:36;77438.66;;;-145.94;50.71
6208;BME280;3137;51.550;7.060;2023-04-30T08:33:02;77436.59;;;-145.94;51.02
6208;BME280;3137;51.550;7.060;2023-04-30T08:35:28;77430.50;;;-145.94;49.61
6208;BME280;3137;51.550;7.060;2023-04-30T08:37:55;77418.25;;;-145.94;49.62
6208;BME280;3137;51.550;7.060;2023-04-30T08:40:21;77408.06;;;-145.94;49.95
6208;BME280;3137;51.550;7.060;2023-04-30T08:43:08;77397.84;;;-145.94;49.93
6208;BME280;3137;51.550;7.060;2023-04-30T08:45:35;77401.94;;;-145.94;48.68
6208;BME280;3137;51.550;7.060;2023-04-30T08:48:09;77387.66;;;-145.94;49.88
6208;BME280;3137;51.550;7.060;2023-04-30T08:50:36;77401.94;;;-145.94;49.15
6208;BME280;3137;51.550;7.060;2023-04-30T08:53:03;77397.84;;;-145.94;48.53
6208;BME280;3137;51.550;7.060;2023-04-30T08:55:33;77383.59;;;-145.94;49.15
6208;BME280;3137;51.550;7.060;2023-04-30T08:57:59;77357.06;;;-145.94;48.75
6208;BME280;3137;51.550;7.060;2023-04-30T09:00:26;77344.84;;;-145.94;48.03
6208;BME280;3137;51.550;7.060;2023-04-30T09:02:52;77324.44;;;-145.94;48.35
6208;BME280;3137;51.550;7.060;2023-04-30T09:05:19;77304.03;;;-145.94;47.88
6208;BME280;3137;51.550;7.060;2023-04-30T09:07:45;77287.72;;;-145.94;48.19
6208;BME280;3137;51.550;7.060;2023-04-30T09:10:20;77287.72;;;-145.94;47.26
6208;BME280;3137;51.550;7.060;2023-04-30T09:15:27;77246.94;;;-145.94;47.30
6208;BME280;3137;51.550;7.060;2023-04-30T09:18:14;77244.91;;;-145.94;46.17
6208;BME280;3137;51.550;7.060;2023-04-30T09:20:54;77263.25;;;-145.94;45.67
6208;BME280;3137;51.550;7.060;2023-04-30T09:23:21;77273.44;;;-145.94;46.35
6208;BME280;3137;51.550;7.060;2023-04-30T09:25:48;77257.13;;;-145.94;46.66
6208;BME280;3137;51.550;7.060;2023-04-30T09:28:14;77259.19;;;-145.94;45.70
6208;BME280;3137;51.550;7.060;2023-04-30T09:30:41;77230.63;;;-145.94;46.50
6208;BME280;3137;51.550;7.060;2023-04-30T09:33:08;77216.34;;;-145.94;45.92
6208;BME280;3137;51.550;7.060;2023-04-30T09:35:38;77216.34;;;-145.94;45.14
6208;BME280;3137;51.550;7.060;2023-04-30T09:38:07;77218.38;;;-145.94;45.90
6208;BME280;3137;51.550;7.060;2023-04-30T09:40:34;77226.53;;;-145.94;45.98
6208;BME280;3137;51.550;7.060;2023-04-30T09:43:01;77208.19;;;-145.94;45.56
6208;BME280;3137;51.550;7.060;2023-04-30T09:45:44;77224.50;;;-145.94;45.31
6208;BME280;3137;51.550;7.060;2023-04-30T09:48:15;77204.13;;;-145.94;45.76
6208;BME280;3137;51.550;7.060;2023-04-30T09:50:43;77195.97;;;-145.94;44.29
6208;BME280;3137;51.550;7.060;2023-04-30T09:53:12;77189.84;;;-145.94;44.78
6208;BME280;3137;51.550;7.060;2023-04-30T09:55:43;77173.53;;;-145.94;44.85
6208;BME280;3137;51.550;7.060;2023-04-30T09:58:11;77167.41;;;-145.94;43.91
6208;BME280;3137;51.550;7.060;2023-04-30T10:00:38;77138.84;;;-145.94;45.43
6208;BME280;3137;51.550;7.060;2023-04-30T10:03:08;77130.69;;;-145.94;44.51
6208;BME280;3137;51.550;7.060;2023-04-30T10:05:42;77130.69;;;-145.94;43.14
6208;BME280;3137;51.550;7.060;2023-04-30T10:10:58;77104.19;;;-145.94;44.00
6208;BME280;3137;51.550;7.060;2023-04-30T10:13:30;77102.16;;;-145.94;43.97
6208;BME280;3137;51.550;7.060;2023-04-30T10:16:03;77083.78;;;-145.94;44.04
6208;BME280;3137;51.550;7.060;2023-04-30T10:18:34;77075.63;;;-145.94;42.58
6208;BME280;3137;51.550;7.060;2023-04-30T10:21:03;77079.72;;;-145.94;43.78
6208;BME280;3137;51.550;7.060;2023-04-30T10:23:36;77079.72;;;-145.94;43.42
6208;BME280;3137;51.550;7.060;2023-04-30T10:26:03;77057.28;;;-145.94;42.73
6208;BME280;3137;51.550;7.060;2023-04-30T10:28:31;77045.03;;;-145.94;42.54
6208;BME280;3137;51.550;7.060;2023-04-30T10:30:57;77038.94;;;-145.94;42.26
6208;BME280;3137;51.550;7.060;2023-04-30T10:36:12;77012.41;;;-145.94;42.73
6208;BME280;3137;51.550;7.060;2023-04-30T10:38:40;76994.06;;;-145.94;42.39
6208;BME280;3137;51.550;7.060;2023-04-30T10:41:06;77022.63;;;-145.94;41.55
6208;BME280;3137;51.550;7.060;2023-04-30T10:43:35;77057.28;;;-145.94;42.53
6208;BME280;3137;51.550;7.060;2023-04-30T10:46:01;77047.09;;;-145.94;42.14
6208;BME280;3137;51.550;7.060;2023-04-30T10:48:32;77020.56;;;-145.94;43.84
6208;BME280;3137;51.550;7.060;2023-04-30T10:51:00;76989.97;;;-145.94;42.79
6208;BME280;3137;51.550;7.060;2023-04-30T10:53:29;76971.63;;;-145.94;42.42
6208;BME280;3137;51.550;7.060;2023-04-30T10:55:58;76961.44;;;-145.94;41.59
6208;BME280;3137;51.550;7.060;2023-04-30T10:58:29;76939.00;;;-145.94;42.68
6208;BME280;3137;51.550;7.060;2023-04-30T11:01:10;76928.81;;;-145.94;41.50
6208;BME280;3137;51.550;7.060;2023-04-30T11:03:39;76920.66;;;-145.94;41.45
6208;BME280;3137;51.550;7.060;2023-04-30T11:06:14;76918.63;;;-145.94;40.98
6208;BME280;3137;51.550;7.060;2023-04-30T11:08:43;76932.88;;;-145.94;40.66
6208;BME280;3137;51.550;7.060;2023-04-30T11:11:11;76900.25;;;-145.94;41.55
6208;BME280;3137;51.550;7.060;2023-04-30T11:13:59;76904.34;;;-145.94;40.64
6208;BME280;3137;51.550;7.060;2023-04-30T11:16:30;76892.09;;;-145.94;40.32
6208;BME280;3137;51.550;7.060;2023-04-30T11:19:09;76892.09;;;-145.94;41.25
6208;BME280;3137;51.550;7.060;2023-04-30T11:21:41;76904.34;;;-145.94;40.31
6208;BME280;3137;51.550;7.060;2023-04-30T11:24:08;76881.91;;;-145.94;41.06
6208;BME280;3137;51.550;7.060;2023-04-30T11:27:03;76867.63;;;-145.94;40.83
6208;BME280;3137;51.550;7.060;2023-04-30T11:29:33;76843.16;;;-145.94;41.26
6208;BME280;3137;51.550;7.060;2023-04-30T11:32:00;76847.25;;;-145.94;40.41
6208;BME280;3137;51.550;7.060;2023-04-30T11:34:27;76865.59;;;-145.94;40.69
6208;BME280;3137;51.550;7.060;2023-04-30T11:36:58;76853.34;;;-145.94;40.50
6208;BME280;3137;51.550;7.060;2023-04-30T11:39:25;76877.81;;;-145.94;39.60
6208;BME280;3137;51.550;7.060;2023-04-30T11:41:53;76879.88;;;-145.94;39.74
6208;BME280;3137;51.550;7.060;2023-04-30T11:44:26;76883.94;;;-145.94;39.57
6208;BME280;3137;51.550;7.060;2023-04-30T11:46:53;76922.69;;;-145.94;41.15
6208;BME280;3137;51.550;7.060;2023-04-30T11:49:19;76936.97;;;-145.94;39.72
6208;BME280;3137;51.550;7.060;2023-04-30T11:51:49;76930.84;;;-145.94;40.23
6208;BME280;3137;51.550;7.060;2023-04-30T11:54:16;76898.22;;;-145.94;40.81
6208;BME280;3137;51.550;7.060;2023-04-30T11:56:47;76902.28;;;-145.94;40.22
6208;BME280;3137;51.550;7.060;2023-04-30T11:59:16;76879.88;;;-145.94;40.32
6208;BME280;3137;51.550;7.060;2023-04-30T12:01:43;76859.47;;;-145.94;38.72
6208;BME280;3137;51.550;7.060;2023-04-30T12:04:10;76849.28;;;-145.94;39.48
6208;BME280;3137;51.550;7.060;2023-04-30T12:06:36;76847.25;;;-145.94;39.30
6208;BME280;3137;51.550;7.060;2023-04-30T12:09:03;76849.28;;;-145.94;39.54
6208;BME280;3137;51.550;7.060;2023-04-30T12:11:33;76841.13;;;-145.94;39.70
6208;BME280;3137;51.550;7.060;2023-04-30T12:14:08;76818.69;;;-145.94;39.84
6208;BME280;3137;51.550;7.060;2023-04-30T12:16:45;76794.22;;;-145.94;38.74
6208;BME280;3137;51.550;7.060;2023-04-30T12:19:15;76804.41;;;-145.94;39.19
6208;BME280;3137;51.550;7.060;2023-04-30T12:21:43;76830.94;;;-145.94;38.94
6208;BME280;3137;51.550;7.060;2023-04-30T12:24:12;76839.09;;;-145.94;39.50
6208;BME280;3137;51.550;7.060;2023-04-30T12:26:40;76861.50;;;-145.94;40.41
6208;BME280;3137;51.550;7.060;2023-04-30T12:29:15;76845.19;;;-145.94;39.30
6208;BME280;3137;51.550;7.060;2023-04-30T12:31:43;76835.00;;;-145.94;38.80
6208;BME280;3137;51.550;7.060;2023-04-30T12:34:13;76843.16;;;-145.94;38.02
6208;BME280;3137;51.550;7.060;2023-04-30T12:36:40;76839.09;;;-145.94;38.87
6208;BME280;3137;51.550;7.060;2023-04-30T12:39:14;76879.88;;;-145.94;39.05
6208;BME280;3137;51.550;7.060;2023-04-30T12:41:47;76871.72;;;-145.94;39.71
6208;BME280;3137;51.550;7.060;2023-04-30T12:44:19;76835.00;;;-145.94;39.58
6208;BME280;3137;51.550;7.060;2023-04-30T12:46:48;76800.34;;;-145.94;40.26
6208;BME280;3137;51.550;7.060;2023-04-30T12:49:25;76769.75;;;-145.94;38.05
6208;BME280;3137;51.550;7.060;2023-04-30T12:52:00;76808.50;;;-145.94;38.38
6208;BME280;3137;51.550;7.060;2023-04-30T12:54:28;76794.22;;;-145.94;39.86
6208;BME280;3137;51.550;7.060;2023-04-30T12:56:57;76802.38;;;-145.94;38.92
6208;BME280;3137;51.550;7.060;2023-04-30T12:59:24;76824.81;;;-145.94;39.06
6208;BME280;3137;51.550;7.060;2023-04-30T13:01:50;76869.66;;;-145.94;39.16
6208;BME280;3137;51.550;7.060;2023-04-30T13:04:16;76892.09;;;-145.94;39.19
6208;BME280;3137;51.550;7.060;2023-04-30T13:06:43;76883.94;;;-145.94;40.13
6208;BME280;3137;51.550;7.060;2023-04-30T13:09:09;76861.50;;;-145.94;39.61
6208;BME280;3137;51.550;7.060;2023-04-30T13:11:37;76863.56;;;-145.94;39.83
6208;BME280;3137;51.550;7.060;2023-04-30T13:14:04;76867.63;;;-145.94;39.94
6208;BME280;3137;51.550;7.060;2023-04-30T13:16:31;76845.19;;;-145.94;39.83
6208;BME280;3137;51.550;7.060;2023-04-30T13:18:57;76835.00;;;-145.94;39.54
6208;BME280;3137;51.550;7.060;2023-04-30T13:21:24;76806.47;;;-145.94;38.60